LGAVLGMT

Guest
Details From LGAV - Athens Intl Airport Elefterios Venizel
To LGMT - Mitilini
Flight Number -
Tags Generated
Created
Modified
Stats Distance 143 nm / 265 km
Max Altitude 0 ft / 0 m
Waypoints 2
Social Downloads 3
Likes 0
Share VATSIM

Download

Looking for another format? Having issues loading an existing format? Contact us
Advertisement - Login to hide

Notes

Generated

Route

LGAV LGMT

ID Type Via Altitude Latitude Longitude Leg Dist Tot Dist Heading (true) Name
O LGAV APT - 0 ft / 0 m 37.92101˚ 23.91920˚ - 0 nm - -
O LGMT APT - 0 ft / 0 m 39.07499˚ 26.58451˚ 143 nm 143 nm 60° / 62° -

Altitude Profile

Advertisement - Login to hide

LGAV

Details ICAO LGAV (ATH)
Name Athens Intl Airport Elefterios Venizel
Region Greece
Timezone Europe/Athens (UTC+3.0)
Stats Elevation 308 ft / 94 m (AMSL)
Location 37.936357° 23.944470°
Runways 2
Magnetic Variation 4.527° E

METAR

LGAV 221750Z 05006KT CAVOK 20/13 Q1018 NOSIG

Decode

TAF

TAF TAF LGAV 221700Z 2218/2318 03013KT 9999 FEW030 TEMPO 2306/2314 03013G23KT

Decode

Departure Runways

ID Width Length Bearing (true) Bearing (mag) Surface Threshold Offset Overrun Length
03L 148 ft / 45 m 12,474 ft / 3,802 m 36.51° 31.98° Asphalt 984 ft / 300 m 393 ft / 120 m
03R 148 ft / 45 m 13,131 ft / 4,002 m 36.52° 31.99° Asphalt 984 ft / 300 m 393 ft / 120 m
21L 148 ft / 45 m 13,131 ft / 4,002 m 216.54° 212.01° Asphalt 984 ft / 300 m 393 ft / 120 m
21R 148 ft / 45 m 12,474 ft / 3,802 m 216.53° 212.00° Asphalt 984 ft / 300 m 393 ft / 120 m

LGMT

Details ICAO LGMT (MJT)
Name Mitilini
Region Greece
Timezone Europe/Athens (UTC+3.0)
Stats Elevation 60 ft / 18 m (AMSL)
Location 39.065833° 26.591943°
Runways 1
Magnetic Variation 4.965° E

METAR

LGMT 221750Z 32008KT CAVOK 23/16 Q1015

Decode

TAF

Not found

Destination Runways

ID Width Length Bearing (true) Bearing (mag) Surface Threshold Offset Overrun Length
14 148 ft / 45 m 7,899 ft / 2,408 m 147.79° 142.83° Asphalt 269 ft / 82 m 200 ft / 61 m
32 148 ft / 45 m 7,899 ft / 2,408 m 327.80° 322.84° Asphalt 1,755 ft / 535 m 165 ft / 50 m

Popular Alternatives